Svitzer Leixoes — CSXW6 — position and weather

sailwx.info

Track history (hours):
 
Tides and Currents Weather Stations Pressure Air Temp Water Temp Dewpoint Dewpoint Depression Visibility Wind Speed Wind Dir Waves Ship Positions

Svitzer Leixoes

Last reported at 2014-Nov-28 23:34 UTC. Time now 2014-Nov-29 00:09 UTC.
Position N 38°42' W 009°10'.

Length 28 m; draft 3.9 m.

Type: Towing. MMSI: 263622000.

Date/timePositionNaut miles runAvg speedWind from/ knotsBaromVisibWave heightAir tempDewpointWater temp
2014-Nov-28 23:34N 38°42' W 009°10'0 0.0
2014-Nov-28 22:33N 38°42' W 009°10'0 0.1
2014-Nov-28 21:33N 38°42' W 009°10'0 0.1
2014-Nov-28 20:33N 38°42' W 009°10'0 0.0
2014-Nov-28 19:33N 38°42' W 009°10'0 0.0
2014-Nov-28 18:33N 38°42' W 009°10'2 2.2
2014-Nov-28 17:33N 38°40' W 009°09'2 2.2
2014-Nov-28 16:33N 38°42' W 009°10'0 0.4
2014-Nov-28 15:33N 38°42' W 009°10'0 0.4
2014-Nov-28 14:34N 38°42' W 009°10'0 0.0
2014-Nov-28 13:33N 38°42' W 009°10'0 0.0
2014-Nov-28 12:33N 38°42' W 009°10'0 0.0
2014-Nov-28 11:33N 38°42' W 009°10'2 1.9
2014-Nov-28 10:33N 38°41' W 009°08'2 1.6
2014-Nov-28 09:33N 38°42' W 009°09'2 1.7
2014-Nov-28 08:33N 38°42' W 009°12'2 1.6
2014-Nov-28 07:33N 38°42' W 009°10'4 4.4
2014-Nov-28 06:33N 38°41' W 009°04'4 4.3
2014-Nov-28 05:33N 38°42' W 009°09'0 0.1
2014-Nov-28 04:33N 38°42' W 009°10'0 0.0
2014-Nov-28 03:33N 38°42' W 009°10'0 0.0
2014-Nov-28 02:33N 38°42' W 009°10'0 0.0
2014-Nov-28 01:33N 38°42' W 009°10'0 0.0
2014-Nov-28 00:33N 38°42' W 009°10'0 0.0
2014-Nov-27 23:33N 38°42' W 009°10'1 0.7
2014-Nov-27 22:33N 38°42' W 009°10'1 0.7
2014-Nov-27 21:33N 38°42' W 009°10'0 0.0
2014-Nov-27 20:33N 38°42' W 009°10'0 0.0
2014-Nov-27 19:33N 38°42' W 009°10'0 0.0
2014-Nov-27 18:33N 38°42' W 009°10'0 0.0
2014-Nov-27 17:33N 38°42' W 009°10'0 0.0
2014-Nov-27 16:33N 38°42' W 009°10'2 1.8
2014-Nov-27 15:33N 38°41' W 009°12'2 1.7
2014-Nov-27 14:33N 38°41' W 009°14'3 3.5
2014-Nov-27 13:33N 38°42' W 009°10'0 0.0
2014-Nov-27 12:33N 38°42' W 009°10'0 0.0
2014-Nov-27 11:33N 38°42' W 009°10'0 0.0
2014-Nov-27 10:33N 38°42' W 009°10'0 0.0
2014-Nov-27 09:33N 38°42' W 009°10'0 0.0
2014-Nov-27 08:33N 38°42' W 009°10'0 0.4
2014-Nov-27 07:33N 38°42' W 009°10'1 0.7
2014-Nov-27 06:33N 38°41' W 009°11'1 1.2
2014-Nov-27 05:33N 38°42' W 009°10'0 0.0
2014-Nov-27 04:33N 38°42' W 009°10'0 0.0
2014-Nov-27 03:33N 38°42' W 009°10'0 0.0
2014-Nov-27 02:33N 38°42' W 009°10'0 0.0
2014-Nov-27 01:33N 38°42' W 009°10'0 0.0
2014-Nov-27 00:33N 38°42' W 009°10'0 0.2
2014-Nov-26 23:34N 38°42' W 009°10'0 0.2
2014-Nov-26 22:33N 38°42' W 009°10'0 0.0
2014-Nov-26 21:33N 38°42' W 009°10'0 0.0
2014-Nov-26 20:33N 38°42' W 009°10'0 0.0
2014-Nov-26 19:33N 38°42' W 009°10'0 0.0
2014-Nov-26 18:33N 38°42' W 009°10'0 0.4
2014-Nov-26 17:33N 38°42' W 009°10'0 0.3
2014-Nov-26 16:33N 38°42' W 009°10'3 3.2
2014-Nov-26 15:33N 38°42' W 009°06'0 0.1
2014-Nov-26 14:33N 38°42' W 009°06'3 2.9
2014-Nov-26 13:33N 38°42' W 009°10'0 0.1
2014-Nov-26 12:33N 38°42' W 009°10'2 2.0
2014-Nov-26 11:33N 38°40' W 009°09'1 0.7
2014-Nov-26 10:33N 38°41' W 009°08'2 1.6
2014-Nov-26 09:34N 38°42' W 009°10'0 0.0
2014-Nov-26 08:33N 38°42' W 009°10'0 0.0
2014-Nov-26 07:33N 38°42' W 009°10'1 0.7
2014-Nov-26 06:33N 38°42' W 009°10'1 0.8
2014-Nov-26 05:33N 38°42' W 009°11'1 0.9
2014-Nov-26 04:34N 38°41' W 009°12'2 2.4
2014-Nov-26 03:33N 38°42' W 009°10'0 0.0
2014-Nov-26 02:33N 38°42' W 009°10'0 0.2
2014-Nov-26 01:33N 38°42' W 009°09'2 1.7
2014-Nov-26 00:33N 38°41' W 009°11'2 1.6
2014-Nov-25 23:33N 38°42' W 009°10'0 0.0
2014-Nov-25 22:33N 38°42' W 009°10'0 0.0
2014-Nov-25 21:33N 38°42' W 009°10'0 0.0
2014-Nov-25 20:33N 38°42' W 009°10'0 0.0
2014-Nov-25 19:33N 38°42' W 009°10'0 0.0
2014-Nov-25 18:33N 38°42' W 009°10'0 0.0
2014-Nov-25 17:33N 38°42' W 009°10'0 0.2
2014-Nov-25 16:33N 38°42' W 009°10'0 0.1
2014-Nov-25 15:33N 38°42' W 009°10'0 0.2
2014-Nov-25 14:33N 38°42' W 009°10'0 0.0
2014-Nov-25 13:33N 38°42' W 009°10'0 0.0
2014-Nov-25 12:34N 38°42' W 009°10'0 0.0
2014-Nov-25 11:33N 38°42' W 009°10'0 0.0
2014-Nov-25 10:33N 38°42' W 009°10'0 0.0
2014-Nov-25 09:34N 38°42' W 009°10'0 0.2
2014-Nov-25 08:33N 38°42' W 009°10'0 0.5
2014-Nov-25 07:33N 38°42' W 009°09'0 0.5
2014-Nov-25 06:34N 38°42' W 009°10'0 0.4
2014-Nov-25 05:34N 38°42' W 009°10'2 2.2
2014-Nov-25 04:34N 38°41' W 009°07'2 1.6
2014-Nov-25 03:34N 38°41' W 009°05'4 3.6
2014-Nov-25 02:34N 38°42' W 009°09'0 0.1
2014-Nov-25 01:34N 38°42' W 009°10'0 0.3
2014-Nov-25 00:33N 38°42' W 009°10'1 0.7
2014-Nov-24 23:34N 38°41' W 009°11'1 1.0
2014-Nov-24 22:34N 38°42' W 009°10'0 0.0
2014-Nov-24 21:34N 38°42' W 009°10'0 0.0
2014-Nov-24 20:34N 38°42' W 009°10'0 0.0
2014-Nov-24 19:34N 38°42' W 009°10'0 0.0
2014-Nov-24 18:34N 38°42' W 009°10'0 0.0
2014-Nov-24 17:34N 38°42' W 009°10'1 0.6
2014-Nov-24 16:34N 38°42' W 009°09'1 0.6
2014-Nov-24 15:34N 38°42' W 009°10'2 2.0
2014-Nov-24 14:33N 38°42' W 009°07'1 1.2
2014-Nov-24 13:33N 38°43' W 009°06'4 3.9
2014-Nov-24 12:33N 38°40' W 009°09'0 0.3
2014-Nov-24 11:34N 38°40' W 009°09'2 1.9
2014-Nov-24 10:34N 38°42' W 009°10'2 2.0
2014-Nov-24 09:34N 38°42' W 009°07'1 1.2
2014-Nov-24 08:34N 38°43' W 009°07'2 2.3
2014-Nov-24 07:34N 38°42' W 009°10'0 0.0
2014-Nov-24 06:34N 38°42' W 009°10'0 0.0
2014-Nov-24 05:34N 38°42' W 009°10'0 0.0
2014-Nov-24 04:34N 38°42' W 009°10'0 0.0
2014-Nov-24 03:33N 38°42' W 009°10'2 2.1
2014-Nov-24 02:34N 38°41' W 009°12'2 1.8
2014-Nov-24 01:34N 38°42' W 009°10'0 0.3
2014-Nov-24 00:34N 38°42' W 009°10'0 0.0
2014-Nov-23 23:34N 38°42' W 009°10'0 0.0
2014-Nov-23 22:34N 38°42' W 009°10'0 0.0
2014-Nov-23 21:34N 38°42' W 009°10'0 0.0
2014-Nov-23 20:34N 38°42' W 009°10'0 0.0
2014-Nov-23 19:34N 38°42' W 009°10'0 0.0
2014-Nov-23 18:33N 38°42' W 009°10'0 0.0
2014-Nov-23 17:34N 38°42' W 009°10'3 2.7
2014-Nov-23 16:34N 38°43' W 009°07'4 3.7
2014-Nov-23 15:34N 38°42' W 009°11'1 1.3
2014-Nov-23 14:34N 38°41' W 009°12'2 2.2
2014-Nov-23 13:34N 38°42' W 009°10'0 0.0
2014-Nov-23 12:34N 38°42' W 009°10'0 0.0
2014-Nov-23 11:34N 38°42' W 009°10'0 0.0
2014-Nov-23 10:34N 38°42' W 009°10'0 0.0
2014-Nov-23 09:34N 38°42' W 009°10'0 0.0
2014-Nov-23 08:34N 38°42' W 009°10'0 0.0
2014-Nov-23 07:34N 38°42' W 009°10'0 0.0
2014-Nov-23 06:34N 38°42' W 009°10'0 0.0
2014-Nov-23 05:34N 38°42' W 009°10'0 0.0
2014-Nov-23 04:34N 38°42' W 009°10'0 0.0
2014-Nov-23 03:34N 38°42' W 009°10'0 0.2
2014-Nov-23 02:34N 38°42' W 009°09'0 0.5
2014-Nov-23 01:34N 38°42' W 009°09'1 0.6
2014-Nov-23 00:34N 38°42' W 009°10'0 0.0
2014-Nov-22 23:34N 38°42' W 009°10'0 0.0
2014-Nov-22 22:34N 38°42' W 009°10'0 0.0
2014-Nov-22 21:33N 38°42' W 009°10'0 0.0
2014-Nov-22 20:34N 38°42' W 009°10'0 0.0
2014-Nov-22 19:34N 38°42' W 009°10'0 0.0
2014-Nov-22 18:34N 38°42' W 009°10'0 0.0
2014-Nov-22 17:34N 38°42' W 009°10'0 0.0
2014-Nov-22 16:34N 38°42' W 009°10'0 0.0
2014-Nov-22 15:34N 38°42' W 009°10'0 0.0
2014-Nov-22 14:34N 38°42' W 009°10'0 0.0
2014-Nov-22 13:34N 38°42' W 009°10'0 0.0
2014-Nov-22 12:34N 38°42' W 009°10'0 0.0
2014-Nov-22 11:34N 38°42' W 009°10'0 0.0
2014-Nov-22 10:34N 38°42' W 009°10'0 0.0
2014-Nov-22 09:34N 38°42' W 009°10'0 0.0
2014-Nov-22 08:34N 38°42' W 009°10'0 0.0
2014-Nov-22 07:34N 38°42' W 009°10'0 0.0
2014-Nov-22 06:34N 38°42' W 009°10'0 0.0
2014-Nov-22 05:34N 38°42' W 009°10'0 0.0
2014-Nov-22 04:34N 38°42' W 009°10'0 0.0
2014-Nov-22 03:34N 38°42' W 009°10'0 0.0
2014-Nov-22 02:34N 38°42' W 009°10'3 2.8
2014-Nov-22 01:33N 38°43' W 009°06'2 1.5
2014-Nov-22 00:34N 38°42' W 009°08'2 1.6
2014-Nov-21 23:34N 38°42' W 009°10'0 0.0
2014-Nov-21 22:34N 38°42' W 009°10'0 0.0
2014-Nov-21 21:34N 38°42' W 009°10'0 0.0
2014-Nov-21 20:34N 38°42' W 009°10'0 0.0
2014-Nov-21 19:34N 38°42' W 009°10'0 0.0
2014-Nov-21 18:34N 38°42' W 009°10'0 0.0
2014-Nov-21 17:34N 38°42' W 009°10'0 0.0
2014-Nov-21 16:34N 38°42' W 009°10'0 0.0
2014-Nov-21 15:34N 38°42' W 009°10'0 0.0
2014-Nov-21 14:34N 38°42' W 009°10'0 0.0
2014-Nov-21 13:33N 38°42' W 009°10'0 0.0
2014-Nov-21 12:34N 38°42' W 009°10'0 0.0
2014-Nov-21 11:34N 38°42' W 009°10'4 3.8
2014-Nov-21 10:34N 38°41' W 009°05'2 1.8
2014-Nov-21 09:34N 38°41' W 009°07'2 2.1
2014-Nov-21 08:34N 38°42' W 009°10'0 0.0
2014-Nov-21 07:34N 38°42' W 009°10'0 0.0
2014-Nov-21 06:34N 38°42' W 009°10'0 0.0
2014-Nov-21 05:34N 38°42' W 009°10'0 0.0
2014-Nov-21 04:34N 38°42' W 009°10'0 0.0
2014-Nov-21 03:34N 38°42' W 009°10'0 0.0
2014-Nov-21 02:34N 38°42' W 009°10'0 0.0
2014-Nov-21 01:34N 38°42' W 009°10'0 0.0
2014-Nov-21 00:34N 38°42' W 009°10'0 0.0
2014-Nov-20 23:34N 38°42' W 009°10'0 0.0
2014-Nov-20 22:34N 38°42' W 009°10'0 0.0
2014-Nov-20 21:34N 38°42' W 009°10'0 0.0
2014-Nov-20 20:34N 38°42' W 009°10'0 0.0
2014-Nov-20 19:34N 38°42' W 009°10'0 0.0
2014-Nov-20 18:34N 38°42' W 009°10'0 0.0
2014-Nov-20 17:34N 38°42' W 009°10'0 0.0
2014-Nov-20 16:34N 38°42' W 009°10'0 0.0
2014-Nov-20 15:34N 38°42' W 009°10'0 0.0
2014-Nov-20 14:34N 38°42' W 009°10'2 1.8
2014-Nov-20 13:33N 38°41' W 009°08'3 3.0
2014-Nov-20 12:34N 38°41' W 009°04'5 4.7
2014-Nov-20 11:34N 38°42' W 009°10'0 0.4
2014-Nov-20 10:34N 38°42' W 009°09'0 0.4
2014-Nov-20 09:34N 38°42' W 009°10'0 0.0
2014-Nov-20 08:34N 38°42' W 009°10'0 0.0
2014-Nov-20 07:34N 38°42' W 009°10'1 0.7
2014-Nov-20 06:34N 38°42' W 009°10'1 0.7
2014-Nov-20 05:34N 38°42' W 009°10'0 0.0
2014-Nov-20 04:34N 38°42' W 009°10'0 0.0
2014-Nov-20 03:33N 38°42' W 009°10'0 0.2
2014-Nov-20 02:34N 38°42' W 009°10'1 0.9
2014-Nov-20 01:34N 38°42' W 009°11'1 1.0
2014-Nov-20 00:34N 38°42' W 009°10'0 0.0
2014-Nov-19 23:34N 38°42' W 009°10'0 0.0
2014-Nov-19 22:34N 38°42' W 009°10'0 0.0
2014-Nov-19 21:34N 38°42' W 009°10'0 0.0
2014-Nov-19 20:34N 38°42' W 009°10'0 0.0
2014-Nov-19 19:34N 38°42' W 009°10'0 0.2
2014-Nov-19 18:34N 38°42' W 009°09'0 0.1
2014-Nov-19 17:34N 38°42' W 009°10'0 0.1
2014-Nov-19 16:34N 38°42' W 009°10'0 0.0
2014-Nov-19 15:34N 38°42' W 009°10'0 0.0
2014-Nov-19 14:34N 38°42' W 009°10'2 1.7
2014-Nov-19 13:34N 38°41' W 009°11'0 0.0
2014-Nov-19 12:34N 38°41' W 009°11'2 1.7
2014-Nov-19 11:34N 38°42' W 009°10'0 0.0
2014-Nov-19 10:34N 38°42' W 009°10'3 2.5
2014-Nov-19 09:11N 38°44' W 009°06'2 2.6
2014-Nov-19 08:33N 38°42' W 009°06'3 2.6
2014-Nov-19 07:34N 38°42' W 009°10'0 0.0
2014-Nov-19 06:34N 38°42' W 009°10'0 0.0
2014-Nov-19 05:34N 38°42' W 009°10'0 0.0
2014-Nov-19 04:33N 38°42' W 009°10'0 0.0
2014-Nov-19 03:34N 38°42' W 009°10'0 0.0
2014-Nov-19 02:34N 38°42' W 009°10'0 0.0
2014-Nov-19 01:34N 38°42' W 009°10'0 0.0
2014-Nov-19 00:34N 38°42' W 009°10'0 0.0
2014-Nov-18 23:34N 38°42' W 009°10'  
Track history (hours):
 
Tides and Currents Weather Stations Pressure Air Temp Water Temp Dewpoint Dewpoint Depression Visibility Wind Speed Wind Dir Waves Ship Positions

Svitzer Leixoes

Last reported at 2014-Nov-28 23:34 UTC. Time now 2014-Nov-29 00:09 UTC.
Position N 38°42' W 009°10'.

Length 28 m; draft 3.9 m.

Type: Towing. MMSI: 263622000.

Date/timePositionNaut miles runAvg speedWind from/ knotsBaromVisibWave heightAir tempDewpointWater temp
2014-Nov-28 23:34N 38°42' W 009°10'0 0.0
2014-Nov-28 22:33N 38°42' W 009°10'0 0.1
2014-Nov-28 21:33N 38°42' W 009°10'0 0.1
2014-Nov-28 20:33N 38°42' W 009°10'0 0.0
2014-Nov-28 19:33N 38°42' W 009°10'0 0.0
2014-Nov-28 18:33N 38°42' W 009°10'2 2.2
2014-Nov-28 17:33N 38°40' W 009°09'2 2.2
2014-Nov-28 16:33N 38°42' W 009°10'0 0.4
2014-Nov-28 15:33N 38°42' W 009°10'0 0.4
2014-Nov-28 14:34N 38°42' W 009°10'0 0.0
2014-Nov-28 13:33N 38°42' W 009°10'0 0.0
2014-Nov-28 12:33N 38°42' W 009°10'0 0.0
2014-Nov-28 11:33N 38°42' W 009°10'2 1.9
2014-Nov-28 10:33N 38°41' W 009°08'2 1.6
2014-Nov-28 09:33N 38°42' W 009°09'2 1.7
2014-Nov-28 08:33N 38°42' W 009°12'2 1.6
2014-Nov-28 07:33N 38°42' W 009°10'4 4.4
2014-Nov-28 06:33N 38°41' W 009°04'4 4.3
2014-Nov-28 05:33N 38°42' W 009°09'0 0.1
2014-Nov-28 04:33N 38°42' W 009°10'0 0.0
2014-Nov-28 03:33N 38°42' W 009°10'0 0.0
2014-Nov-28 02:33N 38°42' W 009°10'0 0.0
2014-Nov-28 01:33N 38°42' W 009°10'0 0.0
2014-Nov-28 00:33N 38°42' W 009°10'0 0.0
2014-Nov-27 23:33N 38°42' W 009°10'1 0.7
2014-Nov-27 22:33N 38°42' W 009°10'1 0.7
2014-Nov-27 21:33N 38°42' W 009°10'0 0.0
2014-Nov-27 20:33N 38°42' W 009°10'0 0.0
2014-Nov-27 19:33N 38°42' W 009°10'0 0.0
2014-Nov-27 18:33N 38°42' W 009°10'0 0.0
2014-Nov-27 17:33N 38°42' W 009°10'0 0.0
2014-Nov-27 16:33N 38°42' W 009°10'2 1.8
2014-Nov-27 15:33N 38°41' W 009°12'2 1.7
2014-Nov-27 14:33N 38°41' W 009°14'3 3.5
2014-Nov-27 13:33N 38°42' W 009°10'0 0.0
2014-Nov-27 12:33N 38°42' W 009°10'0 0.0
2014-Nov-27 11:33N 38°42' W 009°10'0 0.0
2014-Nov-27 10:33N 38°42' W 009°10'0 0.0
2014-Nov-27 09:33N 38°42' W 009°10'0 0.0
2014-Nov-27 08:33N 38°42' W 009°10'0 0.4
2014-Nov-27 07:33N 38°42' W 009°10'1 0.7
2014-Nov-27 06:33N 38°41' W 009°11'1 1.2
2014-Nov-27 05:33N 38°42' W 009°10'0 0.0
2014-Nov-27 04:33N 38°42' W 009°10'0 0.0
2014-Nov-27 03:33N 38°42' W 009°10'0 0.0
2014-Nov-27 02:33N 38°42' W 009°10'0 0.0
2014-Nov-27 01:33N 38°42' W 009°10'0 0.0
2014-Nov-27 00:33N 38°42' W 009°10'0 0.2
2014-Nov-26 23:34N 38°42' W 009°10'0 0.2
2014-Nov-26 22:33N 38°42' W 009°10'0 0.0
2014-Nov-26 21:33N 38°42' W 009°10'0 0.0
2014-Nov-26 20:33N 38°42' W 009°10'0 0.0
2014-Nov-26 19:33N 38°42' W 009°10'0 0.0
2014-Nov-26 18:33N 38°42' W 009°10'0 0.4
2014-Nov-26 17:33N 38°42' W 009°10'0 0.3
2014-Nov-26 16:33N 38°42' W 009°10'3 3.2
2014-Nov-26 15:33N 38°42' W 009°06'0 0.1
2014-Nov-26 14:33N 38°42' W 009°06'3 2.9
2014-Nov-26 13:33N 38°42' W 009°10'0 0.1
2014-Nov-26 12:33N 38°42' W 009°10'2 2.0
2014-Nov-26 11:33N 38°40' W 009°09'1 0.7
2014-Nov-26 10:33N 38°41' W 009°08'2 1.6
2014-Nov-26 09:34N 38°42' W 009°10'0 0.0
2014-Nov-26 08:33N 38°42' W 009°10'0 0.0
2014-Nov-26 07:33N 38°42' W 009°10'1 0.7
2014-Nov-26 06:33N 38°42' W 009°10'1 0.8
2014-Nov-26 05:33N 38°42' W 009°11'1 0.9
2014-Nov-26 04:34N 38°41' W 009°12'2 2.4
2014-Nov-26 03:33N 38°42' W 009°10'0 0.0
2014-Nov-26 02:33N 38°42' W 009°10'0 0.2
2014-Nov-26 01:33N 38°42' W 009°09'2 1.7
2014-Nov-26 00:33N 38°41' W 009°11'2 1.6
2014-Nov-25 23:33N 38°42' W 009°10'0 0.0
2014-Nov-25 22:33N 38°42' W 009°10'0 0.0
2014-Nov-25 21:33N 38°42' W 009°10'0 0.0
2014-Nov-25 20:33N 38°42' W 009°10'0 0.0
2014-Nov-25 19:33N 38°42' W 009°10'0 0.0
2014-Nov-25 18:33N 38°42' W 009°10'0 0.0
2014-Nov-25 17:33N 38°42' W 009°10'0 0.2
2014-Nov-25 16:33N 38°42' W 009°10'0 0.1
2014-Nov-25 15:33N 38°42' W 009°10'0 0.2
2014-Nov-25 14:33N 38°42' W 009°10'0 0.0
2014-Nov-25 13:33N 38°42' W 009°10'0 0.0
2014-Nov-25 12:34N 38°42' W 009°10'0 0.0
2014-Nov-25 11:33N 38°42' W 009°10'0 0.0
2014-Nov-25 10:33N 38°42' W 009°10'0 0.0
2014-Nov-25 09:34N 38°42' W 009°10'0 0.2
2014-Nov-25 08:33N 38°42' W 009°10'0 0.5
2014-Nov-25 07:33N 38°42' W 009°09'0 0.5
2014-Nov-25 06:34N 38°42' W 009°10'0 0.4
2014-Nov-25 05:34N 38°42' W 009°10'2 2.2
2014-Nov-25 04:34N 38°41' W 009°07'2 1.6
2014-Nov-25 03:34N 38°41' W 009°05'4 3.6
2014-Nov-25 02:34N 38°42' W 009°09'0 0.1
2014-Nov-25 01:34N 38°42' W 009°10'0 0.3
2014-Nov-25 00:33N 38°42' W 009°10'1 0.7
2014-Nov-24 23:34N 38°41' W 009°11'1 1.0
2014-Nov-24 22:34N 38°42' W 009°10'0 0.0
2014-Nov-24 21:34N 38°42' W 009°10'0 0.0
2014-Nov-24 20:34N 38°42' W 009°10'0 0.0
2014-Nov-24 19:34N 38°42' W 009°10'0 0.0
2014-Nov-24 18:34N 38°42' W 009°10'0 0.0
2014-Nov-24 17:34N 38°42' W 009°10'1 0.6
2014-Nov-24 16:34N 38°42' W 009°09'1 0.6
2014-Nov-24 15:34N 38°42' W 009°10'2 2.0
2014-Nov-24 14:33N 38°42' W 009°07'1 1.2
2014-Nov-24 13:33N 38°43' W 009°06'4 3.9
2014-Nov-24 12:33N 38°40' W 009°09'0 0.3
2014-Nov-24 11:34N 38°40' W 009°09'2 1.9
2014-Nov-24 10:34N 38°42' W 009°10'2 2.0
2014-Nov-24 09:34N 38°42' W 009°07'1 1.2
2014-Nov-24 08:34N 38°43' W 009°07'2 2.3
2014-Nov-24 07:34N 38°42' W 009°10'0 0.0
2014-Nov-24 06:34N 38°42' W 009°10'0 0.0
2014-Nov-24 05:34N 38°42' W 009°10'0 0.0
2014-Nov-24 04:34N 38°42' W 009°10'0 0.0
2014-Nov-24 03:33N 38°42' W 009°10'2 2.1
2014-Nov-24 02:34N 38°41' W 009°12'2 1.8
2014-Nov-24 01:34N 38°42' W 009°10'0 0.3
2014-Nov-24 00:34N 38°42' W 009°10'0 0.0
2014-Nov-23 23:34N 38°42' W 009°10'0 0.0
2014-Nov-23 22:34N 38°42' W 009°10'0 0.0
2014-Nov-23 21:34N 38°42' W 009°10'0 0.0
2014-Nov-23 20:34N 38°42' W 009°10'0 0.0
2014-Nov-23 19:34N 38°42' W 009°10'0 0.0
2014-Nov-23 18:33N 38°42' W 009°10'0 0.0
2014-Nov-23 17:34N 38°42' W 009°10'3 2.7
2014-Nov-23 16:34N 38°43' W 009°07'4 3.7
2014-Nov-23 15:34N 38°42' W 009°11'1 1.3
2014-Nov-23 14:34N 38°41' W 009°12'2 2.2
2014-Nov-23 13:34N 38°42' W 009°10'0 0.0
2014-Nov-23 12:34N 38°42' W 009°10'0 0.0
2014-Nov-23 11:34N 38°42' W 009°10'0 0.0
2014-Nov-23 10:34N 38°42' W 009°10'0 0.0
2014-Nov-23 09:34N 38°42' W 009°10'0 0.0
2014-Nov-23 08:34N 38°42' W 009°10'0 0.0
2014-Nov-23 07:34N 38°42' W 009°10'0 0.0
2014-Nov-23 06:34N 38°42' W 009°10'0 0.0
2014-Nov-23 05:34N 38°42' W 009°10'0 0.0
2014-Nov-23 04:34N 38°42' W 009°10'0 0.0
2014-Nov-23 03:34N 38°42' W 009°10'0 0.2
2014-Nov-23 02:34N 38°42' W 009°09'0 0.5
2014-Nov-23 01:34N 38°42' W 009°09'1 0.6
2014-Nov-23 00:34N 38°42' W 009°10'0 0.0
2014-Nov-22 23:34N 38°42' W 009°10'0 0.0
2014-Nov-22 22:34N 38°42' W 009°10'0 0.0
2014-Nov-22 21:33N 38°42' W 009°10'0 0.0
2014-Nov-22 20:34N 38°42' W 009°10'0 0.0
2014-Nov-22 19:34N 38°42' W 009°10'0 0.0
2014-Nov-22 18:34N 38°42' W 009°10'0 0.0
2014-Nov-22 17:34N 38°42' W 009°10'0 0.0
2014-Nov-22 16:34N 38°42' W 009°10'0 0.0
2014-Nov-22 15:34N 38°42' W 009°10'0 0.0
2014-Nov-22 14:34N 38°42' W 009°10'0 0.0
2014-Nov-22 13:34N 38°42' W 009°10'0 0.0
2014-Nov-22 12:34N 38°42' W 009°10'0 0.0
2014-Nov-22 11:34N 38°42' W 009°10'0 0.0
2014-Nov-22 10:34N 38°42' W 009°10'0 0.0
2014-Nov-22 09:34N 38°42' W 009°10'0 0.0
2014-Nov-22 08:34N 38°42' W 009°10'0 0.0
2014-Nov-22 07:34N 38°42' W 009°10'0 0.0
2014-Nov-22 06:34N 38°42' W 009°10'0 0.0
2014-Nov-22 05:34N 38°42' W 009°10'0 0.0
2014-Nov-22 04:34N 38°42' W 009°10'0 0.0
2014-Nov-22 03:34N 38°42' W 009°10'0 0.0
2014-Nov-22 02:34N 38°42' W 009°10'3 2.8
2014-Nov-22 01:33N 38°43' W 009°06'2 1.5
2014-Nov-22 00:34N 38°42' W 009°08'2 1.6
2014-Nov-21 23:34N 38°42' W 009°10'0 0.0
2014-Nov-21 22:34N 38°42' W 009°10'0 0.0
2014-Nov-21 21:34N 38°42' W 009°10'0 0.0
2014-Nov-21 20:34N 38°42' W 009°10'0 0.0
2014-Nov-21 19:34N 38°42' W 009°10'0 0.0
2014-Nov-21 18:34N 38°42' W 009°10'0 0.0
2014-Nov-21 17:34N 38°42' W 009°10'0 0.0
2014-Nov-21 16:34N 38°42' W 009°10'0 0.0
2014-Nov-21 15:34N 38°42' W 009°10'0 0.0
2014-Nov-21 14:34N 38°42' W 009°10'0 0.0
2014-Nov-21 13:33N 38°42' W 009°10'0 0.0
2014-Nov-21 12:34N 38°42' W 009°10'0 0.0
2014-Nov-21 11:34N 38°42' W 009°10'4 3.8
2014-Nov-21 10:34N 38°41' W 009°05'2 1.8
2014-Nov-21 09:34N 38°41' W 009°07'2 2.1
2014-Nov-21 08:34N 38°42' W 009°10'0 0.0
2014-Nov-21 07:34N 38°42' W 009°10'0 0.0
2014-Nov-21 06:34N 38°42' W 009°10'0 0.0
2014-Nov-21 05:34N 38°42' W 009°10'0 0.0
2014-Nov-21 04:34N 38°42' W 009°10'0 0.0
2014-Nov-21 03:34N 38°42' W 009°10'0 0.0
2014-Nov-21 02:34N 38°42' W 009°10'0 0.0
2014-Nov-21 01:34N 38°42' W 009°10'0 0.0
2014-Nov-21 00:34N 38°42' W 009°10'0 0.0
2014-Nov-20 23:34N 38°42' W 009°10'0 0.0
2014-Nov-20 22:34N 38°42' W 009°10'0 0.0
2014-Nov-20 21:34N 38°42' W 009°10'0 0.0
2014-Nov-20 20:34N 38°42' W 009°10'0 0.0
2014-Nov-20 19:34N 38°42' W 009°10'0 0.0
2014-Nov-20 18:34N 38°42' W 009°10'0 0.0
2014-Nov-20 17:34N 38°42' W 009°10'0 0.0
2014-Nov-20 16:34N 38°42' W 009°10'0 0.0
2014-Nov-20 15:34N 38°42' W 009°10'0 0.0
2014-Nov-20 14:34N 38°42' W 009°10'2 1.8
2014-Nov-20 13:33N 38°41' W 009°08'3 3.0
2014-Nov-20 12:34N 38°41' W 009°04'5 4.7
2014-Nov-20 11:34N 38°42' W 009°10'0 0.4
2014-Nov-20 10:34N 38°42' W 009°09'0 0.4
2014-Nov-20 09:34N 38°42' W 009°10'0 0.0
2014-Nov-20 08:34N 38°42' W 009°10'0 0.0
2014-Nov-20 07:34N 38°42' W 009°10'1 0.7
2014-Nov-20 06:34N 38°42' W 009°10'1 0.7
2014-Nov-20 05:34N 38°42' W 009°10'0 0.0
2014-Nov-20 04:34N 38°42' W 009°10'0 0.0
2014-Nov-20 03:33N 38°42' W 009°10'0 0.2
2014-Nov-20 02:34N 38°42' W 009°10'1 0.9
2014-Nov-20 01:34N 38°42' W 009°11'1 1.0
2014-Nov-20 00:34N 38°42' W 009°10'0 0.0
2014-Nov-19 23:34N 38°42' W 009°10'0 0.0
2014-Nov-19 22:34N 38°42' W 009°10'0 0.0
2014-Nov-19 21:34N 38°42' W 009°10'0 0.0
2014-Nov-19 20:34N 38°42' W 009°10'0 0.0
2014-Nov-19 19:34N 38°42' W 009°10'0 0.2
2014-Nov-19 18:34N 38°42' W 009°09'0 0.1
2014-Nov-19 17:34N 38°42' W 009°10'0 0.1
2014-Nov-19 16:34N 38°42' W 009°10'0 0.0
2014-Nov-19 15:34N 38°42' W 009°10'0 0.0
2014-Nov-19 14:34N 38°42' W 009°10'2 1.7
2014-Nov-19 13:34N 38°41' W 009°11'0 0.0
2014-Nov-19 12:34N 38°41' W 009°11'2 1.7
2014-Nov-19 11:34N 38°42' W 009°10'0 0.0
2014-Nov-19 10:34N 38°42' W 009°10'3 2.5
2014-Nov-19 09:11N 38°44' W 009°06'2 2.6
2014-Nov-19 08:33N 38°42' W 009°06'3 2.6
2014-Nov-19 07:34N 38°42' W 009°10'0 0.0
2014-Nov-19 06:34N 38°42' W 009°10'0 0.0
2014-Nov-19 05:34N 38°42' W 009°10'0 0.0
2014-Nov-19 04:33N 38°42' W 009°10'0 0.0
2014-Nov-19 03:34N 38°42' W 009°10'0 0.0
2014-Nov-19 02:34N 38°42' W 009°10'0 0.0
2014-Nov-19 01:34N 38°42' W 009°10'0 0.0
2014-Nov-19 00:34N 38°42' W 009°10'0 0.0
2014-Nov-18 23:34N 38°42' W 009°10'  

Dump ship's entire track history